sensor_id;sensor_type;location;lat;lon;timestamp;P1;durP1;ratioP1;P2;durP2;ratioP2
42590;SDS011;28218;53.342;-6.216;2023-05-07T00:01:50;8.13;;;3.67;;
42590;SDS011;28218;53.342;-6.216;2023-05-07T00:04:19;11.90;;;4.00;;
42590;SDS011;28218;53.342;-6.216;2023-05-07T00:06:48;6.78;;;4.13;;
42590;SDS011;28218;53.342;-6.216;2023-05-07T00:09:16;12.38;;;4.05;;
42590;SDS011;28218;53.342;-6.216;2023-05-07T00:11:44;6.38;;;3.40;;
42590;SDS011;28218;53.342;-6.216;2023-05-07T00:14:12;12.20;;;4.30;;
42590;SDS011;28218;53.342;-6.216;2023-05-07T00:16:42;12.10;;;3.55;;
42590;SDS011;28218;53.342;-6.216;2023-05-07T00:19:10;6.55;;;3.97;;
42590;SDS011;28218;53.342;-6.216;2023-05-07T00:21:39;6.68;;;3.38;;
42590;SDS011;28218;53.342;-6.216;2023-05-07T00:24:07;9.00;;;3.60;;
42590;SDS011;28218;53.342;-6.216;2023-05-07T00:26:35;9.30;;;3.55;;
42590;SDS011;28218;53.342;-6.216;2023-05-07T00:29:03;15.88;;;4.25;;
42590;SDS011;28218;53.342;-6.216;2023-05-07T00:31:32;11.63;;;4.03;;
42590;SDS011;28218;53.342;-6.216;2023-05-07T00:34:01;13.68;;;4.20;;
42590;SDS011;28218;53.342;-6.216;2023-05-07T00:36:29;14.40;;;3.65;;
42590;SDS011;28218;53.342;-6.216;2023-05-07T00:38:58;10.52;;;3.90;;
42590;SDS011;28218;53.342;-6.216;2023-05-07T00:43:58;13.15;;;4.53;;
42590;SDS011;28218;53.342;-6.216;2023-05-07T00:46:29;10.27;;;3.50;;
42590;SDS011;28218;53.342;-6.216;2023-05-07T00:48:59;8.45;;;3.45;;
42590;SDS011;28218;53.342;-6.216;2023-05-07T00:51:29;9.18;;;3.30;;
42590;SDS011;28218;53.342;-6.216;2023-05-07T00:54:00;8.35;;;3.05;;
42590;SDS011;28218;53.342;-6.216;2023-05-07T00:58:57;13.48;;;3.60;;
42590;SDS011;28218;53.342;-6.216;2023-05-07T01:01:26;9.95;;;3.38;;
42590;SDS011;28218;53.342;-6.216;2023-05-07T01:03:54;11.23;;;4.35;;
42590;SDS011;28218;53.342;-6.216;2023-05-07T01:06:23;16.65;;;4.65;;
42590;SDS011;28218;53.342;-6.216;2023-05-07T01:08:56;8.10;;;3.55;;
42590;SDS011;28218;53.342;-6.216;2023-05-07T01:11:24;9.52;;;2.83;;
42590;SDS011;28218;53.342;-6.216;2023-05-07T01:13:53;8.65;;;3.20;;
42590;SDS011;28218;53.342;-6.216;2023-05-07T01:16:21;7.95;;;3.65;;
42590;SDS011;28218;53.342;-6.216;2023-05-07T01:18:50;9.23;;;3.30;;
42590;SDS011;28218;53.342;-6.216;2023-05-07T01:21:18;9.27;;;3.20;;
42590;SDS011;28218;53.342;-6.216;2023-05-07T01:23:54;9.82;;;3.25;;
42590;SDS011;28218;53.342;-6.216;2023-05-07T01:26:23;14.77;;;3.55;;
42590;SDS011;28218;53.342;-6.216;2023-05-07T01:28:51;11.05;;;3.03;;
42590;SDS011;28218;53.342;-6.216;2023-05-07T01:31:19;4.93;;;2.33;;
42590;SDS011;28218;53.342;-6.216;2023-05-07T01:33:48;8.23;;;2.95;;
42590;SDS011;28218;53.342;-6.216;2023-05-07T01:36:17;9.07;;;3.15;;
42590;SDS011;28218;53.342;-6.216;2023-05-07T01:38:49;9.75;;;2.45;;
42590;SDS011;28218;53.342;-6.216;2023-05-07T01:41:19;8.05;;;2.05;;
42590;SDS011;28218;53.342;-6.216;2023-05-07T01:43:49;5.78;;;2.60;;
42590;SDS011;28218;53.342;-6.216;2023-05-07T01:46:19;4.50;;;2.15;;
42590;SDS011;28218;53.342;-6.216;2023-05-07T01:48:48;7.50;;;2.33;;
42590;SDS011;28218;53.342;-6.216;2023-05-07T01:51:20;10.30;;;2.28;;
42590;SDS011;28218;53.342;-6.216;2023-05-07T01:53:49;6.13;;;3.20;;
42590;SDS011;28218;53.342;-6.216;2023-05-07T01:56:17;6.78;;;2.50;;
42590;SDS011;28218;53.342;-6.216;2023-05-07T01:58:48;5.70;;;2.33;;
42590;SDS011;28218;53.342;-6.216;2023-05-07T02:01:17;7.78;;;2.40;;
42590;SDS011;28218;53.342;-6.216;2023-05-07T02:03:46;11.63;;;2.65;;
42590;SDS011;28218;53.342;-6.216;2023-05-07T02:06:15;6.72;;;2.40;;
42590;SDS011;28218;53.342;-6.216;2023-05-07T02:08:43;7.82;;;2.05;;
42590;SDS011;28218;53.342;-6.216;2023-05-07T02:11:11;7.13;;;2.53;;
42590;SDS011;28218;53.342;-6.216;2023-05-07T02:13:40;7.20;;;2.45;;
42590;SDS011;28218;53.342;-6.216;2023-05-07T02:16:10;4.13;;;1.90;;
42590;SDS011;28218;53.342;-6.216;2023-05-07T02:18:40;2.85;;;1.90;;
42590;SDS011;28218;53.342;-6.216;2023-05-07T02:21:08;4.95;;;1.83;;
42590;SDS011;28218;53.342;-6.216;2023-05-07T02:23:37;4.95;;;1.90;;
42590;SDS011;28218;53.342;-6.216;2023-05-07T02:26:05;4.43;;;1.70;;
42590;SDS011;28218;53.342;-6.216;2023-05-07T02:28:33;6.85;;;1.90;;
42590;SDS011;28218;53.342;-6.216;2023-05-07T02:31:02;5.93;;;2.25;;
42590;SDS011;28218;53.342;-6.216;2023-05-07T02:33:32;8.65;;;2.05;;
42590;SDS011;28218;53.342;-6.216;2023-05-07T02:36:07;5.50;;;2.07;;
42590;SDS011;28218;53.342;-6.216;2023-05-07T02:38:36;5.93;;;2.13;;
42590;SDS011;28218;53.342;-6.216;2023-05-07T02:41:05;5.95;;;2.13;;
42590;SDS011;28218;53.342;-6.216;2023-05-07T02:43:33;6.13;;;1.95;;
42590;SDS011;28218;53.342;-6.216;2023-05-07T02:46:02;5.97;;;2.03;;
42590;SDS011;28218;53.342;-6.216;2023-05-07T02:48:32;5.55;;;1.90;;
42590;SDS011;28218;53.342;-6.216;2023-05-07T02:51:01;5.75;;;1.80;;
42590;SDS011;28218;53.342;-6.216;2023-05-07T02:53:29;5.22;;;1.55;;
42590;SDS011;28218;53.342;-6.216;2023-05-07T02:55:58;7.70;;;1.95;;
42590;SDS011;28218;53.342;-6.216;2023-05-07T02:58:27;4.63;;;2.03;;
42590;SDS011;28218;53.342;-6.216;2023-05-07T03:00:56;6.78;;;1.77;;
42590;SDS011;28218;53.342;-6.216;2023-05-07T03:03:24;8.73;;;2.03;;
42590;SDS011;28218;53.342;-6.216;2023-05-07T03:05:54;4.25;;;1.75;;
42590;SDS011;28218;53.342;-6.216;2023-05-07T03:08:22;7.60;;;2.17;;
42590;SDS011;28218;53.342;-6.216;2023-05-07T03:10:52;5.97;;;1.90;;
42590;SDS011;28218;53.342;-6.216;2023-05-07T03:13:20;4.57;;;2.15;;
42590;SDS011;28218;53.342;-6.216;2023-05-07T03:15:49;4.72;;;2.50;;
42590;SDS011;28218;53.342;-6.216;2023-05-07T03:18:17;3.75;;;2.47;;
42590;SDS011;28218;53.342;-6.216;2023-05-07T03:20:45;6.20;;;2.65;;
42590;SDS011;28218;53.342;-6.216;2023-05-07T03:23:15;4.50;;;2.00;;
42590;SDS011;28218;53.342;-6.216;2023-05-07T03:25:43;3.90;;;2.00;;
42590;SDS011;28218;53.342;-6.216;2023-05-07T03:28:12;12.63;;;2.45;;
42590;SDS011;28218;53.342;-6.216;2023-05-07T03:30:40;6.25;;;1.95;;
42590;SDS011;28218;53.342;-6.216;2023-05-07T03:33:08;3.25;;;2.08;;
42590;SDS011;28218;53.342;-6.216;2023-05-07T03:35:36;6.18;;;2.70;;
42590;SDS011;28218;53.342;-6.216;2023-05-07T03:38:05;3.92;;;2.00;;
42590;SDS011;28218;53.342;-6.216;2023-05-07T03:40:34;6.07;;;1.90;;
42590;SDS011;28218;53.342;-6.216;2023-05-07T03:43:03;9.07;;;3.80;;
42590;SDS011;28218;53.342;-6.216;2023-05-07T03:45:31;7.63;;;2.88;;
42590;SDS011;28218;53.342;-6.216;2023-05-07T03:47:59;5.82;;;2.33;;
42590;SDS011;28218;53.342;-6.216;2023-05-07T03:50:27;8.43;;;3.20;;
42590;SDS011;28218;53.342;-6.216;2023-05-07T03:52:55;8.15;;;3.17;;
42590;SDS011;28218;53.342;-6.216;2023-05-07T03:55:24;5.07;;;3.08;;
42590;SDS011;28218;53.342;-6.216;2023-05-07T03:57:53;7.38;;;3.53;;
42590;SDS011;28218;53.342;-6.216;2023-05-07T04:00:23;8.23;;;2.83;;
42590;SDS011;28218;53.342;-6.216;2023-05-07T04:02:51;7.85;;;2.75;;
42590;SDS011;28218;53.342;-6.216;2023-05-07T04:05:19;8.95;;;2.88;;
42590;SDS011;28218;53.342;-6.216;2023-05-07T04:07:47;5.10;;;2.22;;
42590;SDS011;28218;53.342;-6.216;2023-05-07T04:10:16;6.95;;;2.63;;
42590;SDS011;28218;53.342;-6.216;2023-05-07T04:12:44;9.38;;;3.50;;
42590;SDS011;28218;53.342;-6.216;2023-05-07T04:15:14;7.30;;;2.35;;
42590;SDS011;28218;53.342;-6.216;2023-05-07T04:17:42;8.68;;;2.58;;
42590;SDS011;28218;53.342;-6.216;2023-05-07T04:20:16;4.07;;;2.10;;
42590;SDS011;28218;53.342;-6.216;2023-05-07T04:22:45;4.85;;;2.35;;
42590;SDS011;28218;53.342;-6.216;2023-05-07T04:25:13;6.15;;;2.10;;
42590;SDS011;28218;53.342;-6.216;2023-05-07T04:27:41;6.70;;;2.38;;
42590;SDS011;28218;53.342;-6.216;2023-05-07T04:30:10;4.95;;;2.00;;
42590;SDS011;28218;53.342;-6.216;2023-05-07T04:32:41;9.18;;;2.25;;
42590;SDS011;28218;53.342;-6.216;2023-05-07T04:35:11;5.63;;;2.67;;
42590;SDS011;28218;53.342;-6.216;2023-05-07T04:37:39;6.00;;;2.72;;
42590;SDS011;28218;53.342;-6.216;2023-05-07T04:40:07;9.50;;;2.10;;
42590;SDS011;28218;53.342;-6.216;2023-05-07T04:42:36;6.97;;;2.28;;
42590;SDS011;28218;53.342;-6.216;2023-05-07T04:45:05;6.93;;;3.10;;
42590;SDS011;28218;53.342;-6.216;2023-05-07T04:47:35;8.75;;;2.72;;
42590;SDS011;28218;53.342;-6.216;2023-05-07T04:50:06;13.93;;;3.40;;
42590;SDS011;28218;53.342;-6.216;2023-05-07T04:55:04;6.88;;;2.75;;
42590;SDS011;28218;53.342;-6.216;2023-05-07T04:57:32;4.82;;;2.92;;
42590;SDS011;28218;53.342;-6.216;2023-05-07T05:00:01;5.13;;;3.20;;
42590;SDS011;28218;53.342;-6.216;2023-05-07T05:02:30;9.52;;;2.95;;
42590;SDS011;28218;53.342;-6.216;2023-05-07T05:04:58;5.50;;;2.30;;
42590;SDS011;28218;53.342;-6.216;2023-05-07T05:07:29;11.02;;;2.63;;
42590;SDS011;28218;53.342;-6.216;2023-05-07T05:09:58;6.70;;;2.25;;
42590;SDS011;28218;53.342;-6.216;2023-05-07T05:12:26;6.15;;;2.58;;
42590;SDS011;28218;53.342;-6.216;2023-05-07T05:14:54;4.05;;;2.33;;
42590;SDS011;28218;53.342;-6.216;2023-05-07T05:17:22;4.20;;;2.38;;
42590;SDS011;28218;53.342;-6.216;2023-05-07T05:19:51;3.55;;;2.08;;
42590;SDS011;28218;53.342;-6.216;2023-05-07T05:22:19;7.25;;;2.20;;
42590;SDS011;28218;53.342;-6.216;2023-05-07T05:24:49;7.20;;;2.30;;
42590;SDS011;28218;53.342;-6.216;2023-05-07T05:27:17;6.43;;;2.80;;
42590;SDS011;28218;53.342;-6.216;2023-05-07T05:29:45;5.97;;;2.40;;
42590;SDS011;28218;53.342;-6.216;2023-05-07T05:32:13;6.18;;;2.58;;
42590;SDS011;28218;53.342;-6.216;2023-05-07T05:34:42;11.73;;;2.45;;
42590;SDS011;28218;53.342;-6.216;2023-05-07T05:37:10;3.92;;;1.92;;
42590;SDS011;28218;53.342;-6.216;2023-05-07T05:39:38;5.13;;;2.30;;
42590;SDS011;28218;53.342;-6.216;2023-05-07T05:42:08;3.33;;;1.70;;
42590;SDS011;28218;53.342;-6.216;2023-05-07T05:44:36;12.82;;;2.55;;
42590;SDS011;28218;53.342;-6.216;2023-05-07T05:47:04;8.02;;;1.88;;
42590;SDS011;28218;53.342;-6.216;2023-05-07T05:49:33;9.05;;;2.00;;
42590;SDS011;28218;53.342;-6.216;2023-05-07T05:52:01;4.28;;;2.13;;
42590;SDS011;28218;53.342;-6.216;2023-05-07T05:54:29;7.47;;;2.67;;
42590;SDS011;28218;53.342;-6.216;2023-05-07T05:56:58;7.35;;;2.53;;
42590;SDS011;28218;53.342;-6.216;2023-05-07T05:59:28;6.10;;;3.15;;
42590;SDS011;28218;53.342;-6.216;2023-05-07T06:01:57;8.05;;;3.53;;
42590;SDS011;28218;53.342;-6.216;2023-05-07T06:04:25;8.68;;;3.08;;
42590;SDS011;28218;53.342;-6.216;2023-05-07T06:06:53;9.10;;;3.35;;
42590;SDS011;28218;53.342;-6.216;2023-05-07T06:09:23;5.18;;;2.60;;
42590;SDS011;28218;53.342;-6.216;2023-05-07T06:11:51;6.45;;;2.75;;
42590;SDS011;28218;53.342;-6.216;2023-05-07T06:14:19;3.28;;;2.08;;
42590;SDS011;28218;53.342;-6.216;2023-05-07T06:16:49;10.75;;;3.13;;
42590;SDS011;28218;53.342;-6.216;2023-05-07T06:19:17;6.38;;;2.15;;
42590;SDS011;28218;53.342;-6.216;2023-05-07T06:21:49;3.40;;;1.83;;
42590;SDS011;28218;53.342;-6.216;2023-05-07T06:24:17;3.50;;;1.95;;
42590;SDS011;28218;53.342;-6.216;2023-05-07T06:26:46;5.75;;;1.85;;
42590;SDS011;28218;53.342;-6.216;2023-05-07T06:29:14;4.15;;;2.30;;
42590;SDS011;28218;53.342;-6.216;2023-05-07T06:31:42;9.65;;;3.47;;
42590;SDS011;28218;53.342;-6.216;2023-05-07T06:34:12;3.40;;;2.95;;
42590;SDS011;28218;53.342;-6.216;2023-05-07T06:36:41;4.45;;;2.58;;
42590;SDS011;28218;53.342;-6.216;2023-05-07T06:39:09;6.20;;;2.40;;
42590;SDS011;28218;53.342;-6.216;2023-05-07T06:41:38;6.35;;;2.78;;
42590;SDS011;28218;53.342;-6.216;2023-05-07T06:44:06;4.60;;;1.95;;
42590;SDS011;28218;53.342;-6.216;2023-05-07T06:46:35;10.13;;;2.03;;
42590;SDS011;28218;53.342;-6.216;2023-05-07T06:49:03;4.50;;;2.08;;
42590;SDS011;28218;53.342;-6.216;2023-05-07T06:51:33;5.18;;;1.80;;
42590;SDS011;28218;53.342;-6.216;2023-05-07T06:54:01;5.38;;;1.90;;
42590;SDS011;28218;53.342;-6.216;2023-05-07T06:56:30;3.60;;;1.60;;
42590;SDS011;28218;53.342;-6.216;2023-05-07T06:58:59;5.45;;;1.70;;
42590;SDS011;28218;53.342;-6.216;2023-05-07T07:01:27;6.20;;;2.10;;
42590;SDS011;28218;53.342;-6.216;2023-05-07T07:03:56;3.97;;;1.60;;
42590;SDS011;28218;53.342;-6.216;2023-05-07T07:06:24;7.53;;;2.08;;
42590;SDS011;28218;53.342;-6.216;2023-05-07T07:08:54;2.85;;;1.20;;
42590;SDS011;28218;53.342;-6.216;2023-05-07T07:11:23;4.32;;;1.35;;
42590;SDS011;28218;53.342;-6.216;2023-05-07T07:13:51;3.95;;;2.15;;
42590;SDS011;28218;53.342;-6.216;2023-05-07T07:16:21;4.70;;;1.65;;
42590;SDS011;28218;53.342;-6.216;2023-05-07T07:18:49;5.80;;;1.40;;
42590;SDS011;28218;53.342;-6.216;2023-05-07T07:21:18;3.88;;;1.23;;
42590;SDS011;28218;53.342;-6.216;2023-05-07T07:23:46;7.85;;;1.80;;
42590;SDS011;28218;53.342;-6.216;2023-05-07T07:26:16;4.40;;;1.38;;
42590;SDS011;28218;53.342;-6.216;2023-05-07T07:28:45;6.55;;;1.50;;
42590;SDS011;28218;53.342;-6.216;2023-05-07T07:31:14;5.80;;;2.35;;
42590;SDS011;28218;53.342;-6.216;2023-05-07T07:33:42;5.13;;;1.58;;
42590;SDS011;28218;53.342;-6.216;2023-05-07T07:36:10;5.68;;;1.80;;
42590;SDS011;28218;53.342;-6.216;2023-05-07T07:38:39;7.38;;;1.90;;
42590;SDS011;28218;53.342;-6.216;2023-05-07T07:41:07;5.63;;;1.65;;
42590;SDS011;28218;53.342;-6.216;2023-05-07T07:43:37;2.22;;;1.65;;
42590;SDS011;28218;53.342;-6.216;2023-05-07T07:46:06;2.83;;;1.52;;
42590;SDS011;28218;53.342;-6.216;2023-05-07T07:48:34;4.63;;;1.80;;
42590;SDS011;28218;53.342;-6.216;2023-05-07T07:51:03;5.60;;;1.90;;
42590;SDS011;28218;53.342;-6.216;2023-05-07T07:53:31;5.35;;;1.98;;
42590;SDS011;28218;53.342;-6.216;2023-05-07T07:55:59;6.85;;;1.98;;
42590;SDS011;28218;53.342;-6.216;2023-05-07T08:01:00;10.77;;;3.88;;
42590;SDS011;28218;53.342;-6.216;2023-05-07T08:03:28;21.55;;;5.10;;
42590;SDS011;28218;53.342;-6.216;2023-05-07T08:05:59;10.48;;;3.90;;
42590;SDS011;28218;53.342;-6.216;2023-05-07T08:08:27;13.70;;;4.97;;
42590;SDS011;28218;53.342;-6.216;2023-05-07T08:10:55;20.92;;;3.95;;
42590;SDS011;28218;53.342;-6.216;2023-05-07T08:13:23;15.98;;;4.75;;
42590;SDS011;28218;53.342;-6.216;2023-05-07T08:15:52;12.13;;;5.10;;
42590;SDS011;28218;53.342;-6.216;2023-05-07T08:18:22;6.00;;;3.97;;
42590;SDS011;28218;53.342;-6.216;2023-05-07T08:20:51;6.38;;;3.10;;
42590;SDS011;28218;53.342;-6.216;2023-05-07T08:23:20;14.32;;;2.50;;
42590;SDS011;28218;53.342;-6.216;2023-05-07T08:25:48;7.93;;;2.30;;
42590;SDS011;28218;53.342;-6.216;2023-05-07T08:28:17;7.90;;;2.72;;
42590;SDS011;28218;53.342;-6.216;2023-05-07T08:30:46;21.10;;;3.10;;
42590;SDS011;28218;53.342;-6.216;2023-05-07T08:33:14;13.10;;;2.65;;
42590;SDS011;28218;53.342;-6.216;2023-05-07T08:35:44;4.40;;;2.40;;
42590;SDS011;28218;53.342;-6.216;2023-05-07T08:38:12;5.55;;;2.50;;
42590;SDS011;28218;53.342;-6.216;2023-05-07T08:40:40;8.35;;;2.75;;
42590;SDS011;28218;53.342;-6.216;2023-05-07T08:43:08;6.82;;;2.45;;
42590;SDS011;28218;53.342;-6.216;2023-05-07T08:45:40;4.68;;;2.17;;
42590;SDS011;28218;53.342;-6.216;2023-05-07T08:48:09;9.70;;;2.97;;
42590;SDS011;28218;53.342;-6.216;2023-05-07T08:50:45;8.60;;;2.38;;
42590;SDS011;28218;53.342;-6.216;2023-05-07T08:53:14;5.22;;;2.65;;
42590;SDS011;28218;53.342;-6.216;2023-05-07T08:55:44;7.93;;;2.42;;
42590;SDS011;28218;53.342;-6.216;2023-05-07T08:58:13;6.97;;;2.35;;
42590;SDS011;28218;53.342;-6.216;2023-05-07T09:00:41;6.80;;;2.50;;
42590;SDS011;28218;53.342;-6.216;2023-05-07T09:03:10;5.28;;;2.10;;
42590;SDS011;28218;53.342;-6.216;2023-05-07T09:05:39;6.95;;;2.33;;
42590;SDS011;28218;53.342;-6.216;2023-05-07T09:08:09;4.90;;;2.03;;
42590;SDS011;28218;53.342;-6.216;2023-05-07T09:10:37;6.25;;;2.40;;
42590;SDS011;28218;53.342;-6.216;2023-05-07T09:13:05;5.97;;;2.80;;
42590;SDS011;28218;53.342;-6.216;2023-05-07T09:15:34;9.18;;;2.60;;
42590;SDS011;28218;53.342;-6.216;2023-05-07T09:18:02;6.05;;;2.00;;
42590;SDS011;28218;53.342;-6.216;2023-05-07T09:20:30;3.08;;;2.05;;
42590;SDS011;28218;53.342;-6.216;2023-05-07T09:22:59;4.20;;;2.15;;
42590;SDS011;28218;53.342;-6.216;2023-05-07T09:25:29;5.85;;;2.58;;
42590;SDS011;28218;53.342;-6.216;2023-05-07T09:27:58;6.47;;;2.20;;
42590;SDS011;28218;53.342;-6.216;2023-05-07T09:30:28;5.35;;;2.22;;
42590;SDS011;28218;53.342;-6.216;2023-05-07T09:32:57;9.48;;;2.25;;
42590;SDS011;28218;53.342;-6.216;2023-05-07T09:35:27;8.43;;;1.92;;
42590;SDS011;28218;53.342;-6.216;2023-05-07T09:37:56;7.88;;;1.95;;
42590;SDS011;28218;53.342;-6.216;2023-05-07T09:40:31;3.72;;;1.60;;
42590;SDS011;28218;53.342;-6.216;2023-05-07T09:43:08;6.72;;;1.80;;
42590;SDS011;28218;53.342;-6.216;2023-05-07T09:45:38;7.53;;;2.28;;
42590;SDS011;28218;53.342;-6.216;2023-05-07T09:48:06;10.15;;;2.35;;
42590;SDS011;28218;53.342;-6.216;2023-05-07T09:50:36;16.92;;;2.20;;
42590;SDS011;28218;53.342;-6.216;2023-05-07T09:53:15;10.50;;;3.15;;
42590;SDS011;28218;53.342;-6.216;2023-05-07T09:55:46;15.20;;;2.65;;
42590;SDS011;28218;53.342;-6.216;2023-05-07T09:58:15;5.60;;;1.85;;
42590;SDS011;28218;53.342;-6.216;2023-05-07T10:00:45;6.22;;;1.90;;
42590;SDS011;28218;53.342;-6.216;2023-05-07T10:03:14;4.18;;;1.70;;
42590;SDS011;28218;53.342;-6.216;2023-05-07T10:05:43;5.90;;;1.98;;
42590;SDS011;28218;53.342;-6.216;2023-05-07T10:08:14;4.07;;;2.05;;
42590;SDS011;28218;53.342;-6.216;2023-05-07T10:10:43;7.68;;;2.25;;
42590;SDS011;28218;53.342;-6.216;2023-05-07T10:13:13;3.67;;;1.98;;
42590;SDS011;28218;53.342;-6.216;2023-05-07T10:15:42;6.53;;;1.95;;
42590;SDS011;28218;53.342;-6.216;2023-05-07T10:18:11;11.00;;;2.08;;
42590;SDS011;28218;53.342;-6.216;2023-05-07T10:20:41;5.45;;;2.50;;
42590;SDS011;28218;53.342;-6.216;2023-05-07T10:23:14;5.50;;;2.10;;
42590;SDS011;28218;53.342;-6.216;2023-05-07T10:25:47;4.50;;;1.70;;
42590;SDS011;28218;53.342;-6.216;2023-05-07T10:28:17;12.77;;;2.40;;
42590;SDS011;28218;53.342;-6.216;2023-05-07T10:33:28;4.03;;;1.90;;
42590;SDS011;28218;53.342;-6.216;2023-05-07T10:35:58;13.32;;;2.67;;
42590;SDS011;28218;53.342;-6.216;2023-05-07T10:38:30;5.40;;;2.55;;
42590;SDS011;28218;53.342;-6.216;2023-05-07T10:41:01;5.25;;;2.72;;
42590;SDS011;28218;53.342;-6.216;2023-05-07T10:43:39;3.40;;;2.00;;
42590;SDS011;28218;53.342;-6.216;2023-05-07T10:46:13;7.50;;;2.75;;
42590;SDS011;28218;53.342;-6.216;2023-05-07T10:51:38;6.13;;;2.45;;
42590;SDS011;28218;53.342;-6.216;2023-05-07T10:54:22;3.90;;;2.45;;
42590;SDS011;28218;53.342;-6.216;2023-05-07T10:56:52;6.65;;;2.50;;
42590;SDS011;28218;53.342;-6.216;2023-05-07T10:59:34;6.40;;;2.55;;
42590;SDS011;28218;53.342;-6.216;2023-05-07T11:02:14;10.32;;;2.63;;
42590;SDS011;28218;53.342;-6.216;2023-05-07T11:04:42;12.50;;;3.10;;
42590;SDS011;28218;53.342;-6.216;2023-05-07T11:07:27;5.95;;;2.58;;
42590;SDS011;28218;53.342;-6.216;2023-05-07T11:09:57;6.28;;;2.60;;
42590;SDS011;28218;53.342;-6.216;2023-05-07T11:12:51;8.50;;;2.83;;
42590;SDS011;28218;53.342;-6.216;2023-05-07T11:15:33;5.65;;;2.35;;
42590;SDS011;28218;53.342;-6.216;2023-05-07T11:18:04;6.75;;;3.30;;
42590;SDS011;28218;53.342;-6.216;2023-05-07T11:26:23;11.00;;;3.22;;
42590;SDS011;28218;53.342;-6.216;2023-05-07T11:28:54;17.90;;;3.53;;
42590;SDS011;28218;53.342;-6.216;2023-05-07T11:31:24;9.38;;;4.63;;
42590;SDS011;28218;53.342;-6.216;2023-05-07T11:36:23;14.10;;;3.63;;
42590;SDS011;28218;53.342;-6.216;2023-05-07T11:38:52;19.17;;;5.13;;
42590;SDS011;28218;53.342;-6.216;2023-05-07T11:41:20;16.02;;;4.95;;
42590;SDS011;28218;53.342;-6.216;2023-05-07T11:43:57;18.58;;;6.15;;
42590;SDS011;28218;53.342;-6.216;2023-05-07T11:46:26;19.27;;;5.57;;
42590;SDS011;28218;53.342;-6.216;2023-05-07T11:48:56;16.77;;;4.63;;
42590;SDS011;28218;53.342;-6.216;2023-05-07T11:51:24;12.45;;;4.65;;
42590;SDS011;28218;53.342;-6.216;2023-05-07T11:53:56;21.67;;;5.43;;
42590;SDS011;28218;53.342;-6.216;2023-05-07T11:56:24;16.35;;;5.03;;
42590;SDS011;28218;53.342;-6.216;2023-05-07T11:58:52;15.98;;;3.95;;
42590;SDS011;28218;53.342;-6.216;2023-05-07T12:01:22;18.83;;;3.95;;
42590;SDS011;28218;53.342;-6.216;2023-05-07T12:03:50;13.43;;;3.85;;
42590;SDS011;28218;53.342;-6.216;2023-05-07T12:06:19;9.90;;;3.03;;
42590;SDS011;28218;53.342;-6.216;2023-05-07T12:08:47;5.57;;;2.30;;
42590;SDS011;28218;53.342;-6.216;2023-05-07T12:11:16;6.68;;;2.42;;
42590;SDS011;28218;53.342;-6.216;2023-05-07T12:13:49;4.70;;;1.95;;
42590;SDS011;28218;53.342;-6.216;2023-05-07T12:16:18;9.27;;;2.33;;
42590;SDS011;28218;53.342;-6.216;2023-05-07T12:18:48;6.72;;;2.45;;
42590;SDS011;28218;53.342;-6.216;2023-05-07T12:21:19;8.13;;;2.88;;
42590;SDS011;28218;53.342;-6.216;2023-05-07T12:23:47;10.93;;;2.78;;
42590;SDS011;28218;53.342;-6.216;2023-05-07T12:26:16;7.60;;;2.60;;
42590;SDS011;28218;53.342;-6.216;2023-05-07T12:28:44;6.68;;;2.25;;
42590;SDS011;28218;53.342;-6.216;2023-05-07T12:31:13;7.00;;;2.28;;
42590;SDS011;28218;53.342;-6.216;2023-05-07T12:33:42;6.85;;;2.22;;
42590;SDS011;28218;53.342;-6.216;2023-05-07T12:36:12;6.65;;;2.25;;
42590;SDS011;28218;53.342;-6.216;2023-05-07T12:38:41;5.38;;;1.92;;
42590;SDS011;28218;53.342;-6.216;2023-05-07T12:41:09;6.35;;;2.03;;
42590;SDS011;28218;53.342;-6.216;2023-05-07T12:43:39;7.22;;;2.00;;
42590;SDS011;28218;53.342;-6.216;2023-05-07T12:46:07;5.07;;;1.90;;
42590;SDS011;28218;53.342;-6.216;2023-05-07T12:48:36;4.35;;;2.25;;
42590;SDS011;28218;53.342;-6.216;2023-05-07T12:51:05;4.85;;;1.95;;
42590;SDS011;28218;53.342;-6.216;2023-05-07T12:53:39;2.25;;;1.40;;
42590;SDS011;28218;53.342;-6.216;2023-05-07T12:56:08;5.10;;;1.52;;
42590;SDS011;28218;53.342;-6.216;2023-05-07T12:58:37;4.75;;;1.52;;
42590;SDS011;28218;53.342;-6.216;2023-05-07T13:01:06;4.90;;;1.88;;
42590;SDS011;28218;53.342;-6.216;2023-05-07T13:03:37;6.80;;;1.40;;
42590;SDS011;28218;53.342;-6.216;2023-05-07T13:06:07;4.45;;;1.48;;
42590;SDS011;28218;53.342;-6.216;2023-05-07T13:08:40;4.68;;;1.38;;
42590;SDS011;28218;53.342;-6.216;2023-05-07T13:11:10;2.67;;;1.63;;
42590;SDS011;28218;53.342;-6.216;2023-05-07T13:13:39;2.95;;;1.35;;
42590;SDS011;28218;53.342;-6.216;2023-05-07T13:16:09;5.55;;;1.63;;
42590;SDS011;28218;53.342;-6.216;2023-05-07T13:18:39;3.03;;;1.13;;
42590;SDS011;28218;53.342;-6.216;2023-05-07T13:21:10;3.58;;;2.40;;
42590;SDS011;28218;53.342;-6.216;2023-05-07T13:23:41;7.97;;;2.03;;
42590;SDS011;28218;53.342;-6.216;2023-05-07T13:26:09;3.72;;;1.48;;
42590;SDS011;28218;53.342;-6.216;2023-05-07T13:28:52;7.53;;;1.83;;
42590;SDS011;28218;53.342;-6.216;2023-05-07T13:31:20;4.35;;;1.90;;
42590;SDS011;28218;53.342;-6.216;2023-05-07T13:33:49;5.68;;;2.17;;
42590;SDS011;28218;53.342;-6.216;2023-05-07T13:36:17;7.03;;;2.10;;
42590;SDS011;28218;53.342;-6.216;2023-05-07T13:38:47;2.35;;;1.13;;
42590;SDS011;28218;53.342;-6.216;2023-05-07T13:41:15;6.15;;;3.83;;
42590;SDS011;28218;53.342;-6.216;2023-05-07T13:43:43;6.22;;;1.92;;
42590;SDS011;28218;53.342;-6.216;2023-05-07T13:46:11;2.85;;;1.30;;
42590;SDS011;28218;53.342;-6.216;2023-05-07T13:48:40;5.03;;;1.17;;
42590;SDS011;28218;53.342;-6.216;2023-05-07T13:51:08;1.92;;;1.10;;
42590;SDS011;28218;53.342;-6.216;2023-05-07T13:53:36;0.80;;;0.80;;
42590;SDS011;28218;53.342;-6.216;2023-05-07T13:56:06;3.75;;;1.42;;
42590;SDS011;28218;53.342;-6.216;2023-05-07T13:58:34;2.22;;;1.00;;
42590;SDS011;28218;53.342;-6.216;2023-05-07T14:01:13;3.70;;;1.10;;
42590;SDS011;28218;53.342;-6.216;2023-05-07T14:03:42;0.88;;;0.73;;
42590;SDS011;28218;53.342;-6.216;2023-05-07T14:06:10;1.73;;;0.98;;
42590;SDS011;28218;53.342;-6.216;2023-05-07T14:08:38;5.68;;;2.20;;
42590;SDS011;28218;53.342;-6.216;2023-05-07T14:11:08;3.97;;;2.33;;
42590;SDS011;28218;53.342;-6.216;2023-05-07T14:13:36;4.15;;;1.50;;
42590;SDS011;28218;53.342;-6.216;2023-05-07T14:16:05;5.47;;;1.77;;
42590;SDS011;28218;53.342;-6.216;2023-05-07T14:18:33;3.25;;;1.33;;
42590;SDS011;28218;53.342;-6.216;2023-05-07T14:21:04;5.53;;;1.38;;
42590;SDS011;28218;53.342;-6.216;2023-05-07T14:23:36;2.55;;;1.10;;
42590;SDS011;28218;53.342;-6.216;2023-05-07T14:26:04;2.20;;;1.10;;
42590;SDS011;28218;53.342;-6.216;2023-05-07T14:28:34;2.50;;;0.95;;
42590;SDS011;28218;53.342;-6.216;2023-05-07T14:31:02;2.17;;;0.93;;
42590;SDS011;28218;53.342;-6.216;2023-05-07T14:33:31;2.72;;;0.80;;
42590;SDS011;28218;53.342;-6.216;2023-05-07T14:35:59;1.35;;;0.70;;
42590;SDS011;28218;53.342;-6.216;2023-05-07T14:38:27;1.05;;;0.88;;
42590;SDS011;28218;53.342;-6.216;2023-05-07T14:40:55;2.72;;;0.98;;
42590;SDS011;28218;53.342;-6.216;2023-05-07T14:43:24;3.80;;;1.13;;
42590;SDS011;28218;53.342;-6.216;2023-05-07T14:45:53;1.67;;;0.82;;
42590;SDS011;28218;53.342;-6.216;2023-05-07T14:48:21;2.88;;;1.10;;
42590;SDS011;28218;53.342;-6.216;2023-05-07T14:50:49;5.22;;;2.00;;
42590;SDS011;28218;53.342;-6.216;2023-05-07T14:53:18;9.20;;;2.55;;
42590;SDS011;28218;53.342;-6.216;2023-05-07T14:55:46;7.50;;;2.22;;
42590;SDS011;28218;53.342;-6.216;2023-05-07T14:58:15;8.27;;;2.85;;
42590;SDS011;28218;53.342;-6.216;2023-05-07T15:00:43;11.68;;;3.78;;
42590;SDS011;28218;53.342;-6.216;2023-05-07T15:03:13;9.90;;;2.70;;
42590;SDS011;28218;53.342;-6.216;2023-05-07T15:05:42;5.55;;;2.50;;
42590;SDS011;28218;53.342;-6.216;2023-05-07T15:08:10;10.60;;;2.92;;
42590;SDS011;28218;53.342;-6.216;2023-05-07T15:10:39;14.30;;;3.42;;